Time;durP1;ratioP1;P1;durP2;ratioP2;P2;SDS_P1;SDS_P2;PMS_P1;PMS_P2;Temp;Humidity;BMP_temperature;BMP_pressure;BME280_temperature;BME280_humidity;BME280_pressure;Samples;Min_cycle;Max_cycle;Signal;HPM_P1;HPM_P2
2023/05/06 00:00:34;;;;;;;5.65;4.63;;;20.00;75.80;;;;;;6126472;23;20002;-78
2023/05/06 00:03:00;;;;;;;6.45;5.15;;;20.00;76.00;;;;;;6126272;23;20402;-77
2023/05/06 00:05:26;;;;;;;5.60;4.97;;;20.00;76.10;;;;;;6124960;23;20077;-77
2023/05/06 00:07:52;;;;;;;5.18;4.68;;;20.00;76.30;;;;;;6124711;23;20057;-77
2023/05/06 00:10:18;;;;;;;7.15;4.95;;;20.00;76.50;;;;;;6125007;23;20029;-78
2023/05/06 00:12:44;;;;;;;6.40;4.82;;;19.90;76.60;;;;;;6123846;23;20012;-77
2023/05/06 00:15:10;;;;;;;6.32;4.90;;;19.90;76.80;;;;;;6122143;23;20010;-77
2023/05/06 00:17:36;;;;;;;7.40;4.90;;;19.90;76.90;;;;;;6125212;23;20029;-78
2023/05/06 00:20:02;;;;;;;6.38;5.43;;;19.90;77.00;;;;;;6125856;23;20013;-78
2023/05/06 00:22:31;;;;;;;6.53;5.32;;;19.90;77.10;;;;;;6100326;23;20006;-78
2023/05/06 00:24:57;;;;;;;7.32;4.85;;;19.80;77.00;;;;;;6126420;23;20011;-78
2023/05/06 00:27:22;;;;;;;7.18;5.32;;;19.80;77.10;;;;;;6125646;23;20002;-79
2023/05/06 00:29:48;;;;;;;11.82;5.40;;;19.80;77.40;;;;;;6126417;23;20009;-78
2023/05/06 00:32:14;;;;;;;9.00;5.75;;;19.80;77.70;;;;;;6127372;23;20077;-79
2023/05/06 00:34:39;;;;;;;7.72;4.88;;;19.80;77.70;;;;;;6127806;23;20013;-79
2023/05/06 00:37:05;;;;;;;6.78;5.30;;;19.80;77.80;;;;;;6126991;23;20017;-80
2023/05/06 00:39:31;;;;;;;7.70;5.50;;;19.70;77.80;;;;;;6126908;23;20009;-79
2023/05/06 00:42:03;;;;;;;6.82;5.57;;;19.70;77.70;;;;;;6127320;23;20009;-79
2023/05/06 00:44:30;;;;;;;6.22;5.18;;;19.70;77.70;;;;;;6127352;23;20046;-79
2023/05/06 00:46:59;;;;;;;6.50;5.80;;;19.70;78.00;;;;;;6126786;23;20005;-80
2023/05/06 00:49:25;;;;;;;7.95;5.57;;;19.60;78.30;;;;;;6126871;23;20002;-80
2023/05/06 00:51:55;;;;;;;4.95;4.50;;;19.70;78.50;;;;;;6126519;23;20053;-80
2023/05/06 00:54:22;;;;;;;6.40;5.47;;;19.60;78.50;;;;;;6126664;23;20010;-80
2023/05/06 00:56:48;;;;;;;6.20;5.28;;;19.60;78.50;;;;;;6124937;23;20232;-79
2023/05/06 00:59:14;;;;;;;7.85;5.88;;;19.60;78.70;;;;;;6124623;23;20006;-80
2023/05/06 01:01:40;;;;;;;8.02;5.38;;;19.60;78.80;;;;;;6125429;23;20007;-79
2023/05/06 01:04:07;;;;;;;6.25;5.60;;;19.60;78.60;;;;;;6127025;23;19998;-79
2023/05/06 01:06:57;;;;;;;7.63;5.25;;;19.60;78.50;;;;;;6101050;23;20324;-80
2023/05/06 01:09:46;;;;;;;7.20;5.07;;;19.60;78.60;;;;;;6126717;23;20016;-79
2023/05/06 01:12:22;;;;;;;6.72;5.60;;;19.60;78.70;;;;;;6126142;23;20005;-79
2023/05/06 01:15:05;;;;;;;6.50;4.90;;;19.50;78.50;;;;;;6126221;23;20085;-79
2023/05/06 01:17:34;;;;;;;6.88;6.05;;;19.50;78.80;;;;;;6126201;23;20002;-79
2023/05/06 01:20:01;;;;;;;7.60;6.30;;;19.50;78.50;;;;;;6126803;23;20078;-79
2023/05/06 01:22:29;;;;;;;8.43;5.50;;;19.40;78.50;;;;;;6127285;23;20053;-79
2023/05/06 01:24:54;;;;;;;6.25;5.28;;;19.40;78.80;;;;;;6126051;23;19998;-79
2023/05/06 01:27:20;;;;;;;6.32;5.22;;;19.40;78.90;;;;;;6126488;23;20002;-79
2023/05/06 01:29:47;;;;;;;6.88;5.00;;;19.40;79.00;;;;;;6125762;23;20080;-79
2023/05/06 01:32:18;;;;;;;6.13;5.35;;;19.40;79.00;;;;;;6126415;23;20009;-80
2023/05/06 01:35:02;;;;;;;6.68;5.90;;;19.40;79.10;;;;;;6126163;23;20018;-79
2023/05/06 01:37:45;;;;;;;6.53;5.20;;;19.40;79.20;;;;;;6126511;23;20005;-79
2023/05/06 01:40:13;;;;;;;7.28;5.47;;;19.30;79.30;;;;;;6100338;23;20006;-78
2023/05/06 01:42:40;;;;;;;5.93;5.32;;;19.30;79.40;;;;;;6126301;23;19998;-79
2023/05/06 01:45:08;;;;;;;6.28;4.95;;;19.30;79.70;;;;;;6125967;23;20002;-78
2023/05/06 01:47:37;;;;;;;6.72;5.78;;;19.30;80.00;;;;;;6126673;23;20077;-78
2023/05/06 01:50:04;;;;;;;11.70;5.50;;;19.30;79.90;;;;;;6125984;23;20012;-78
2023/05/06 01:52:29;;;;;;;6.57;5.10;;;19.30;79.70;;;;;;6126955;23;20100;-78
2023/05/06 01:54:55;;;;;;;6.72;5.30;;;19.30;79.60;;;;;;6125983;23;20006;-78
2023/05/06 01:57:21;;;;;;;6.25;5.28;;;19.20;79.50;;;;;;6126102;23;20033;-79
2023/05/06 01:59:46;;;;;;;7.85;5.80;;;19.20;79.70;;;;;;6098955;23;20013;-79
2023/05/06 02:02:12;;;;;;;6.13;5.45;;;19.20;79.80;;;;;;6126353;23;20004;-78
2023/05/06 02:04:38;;;;;;;8.65;6.07;;;19.20;80.10;;;;;;6125982;23;20069;-78
2023/05/06 02:07:03;;;;;;;6.43;5.40;;;19.20;80.10;;;;;;6125959;23;20372;-78
2023/05/06 02:09:29;;;;;;;7.78;6.20;;;19.20;80.10;;;;;;6125209;23;20299;-78
2023/05/06 02:11:55;;;;;;;6.53;5.45;;;19.20;80.50;;;;;;6126798;23;20016;-78
2023/05/06 02:14:20;;;;;;;6.78;5.40;;;19.10;80.70;;;;;;6125834;23;20010;-78
2023/05/06 02:16:46;;;;;;;6.93;5.47;;;19.10;80.70;;;;;;6125985;23;20009;-79
2023/05/06 02:19:11;;;;;;;7.70;5.88;;;19.10;80.70;;;;;;6125607;23;20013;-79
2023/05/06 02:21:38;;;;;;;7.95;5.78;;;19.10;80.70;;;;;;6126457;23;20566;-77
2023/05/06 02:24:04;;;;;;;7.07;5.65;;;19.10;80.80;;;;;;6125965;23;20024;-78
2023/05/06 02:26:30;;;;;;;6.55;5.50;;;19.00;80.80;;;;;;6126134;23;20052;-78
2023/05/06 02:28:56;;;;;;;7.45;5.97;;;19.00;80.80;;;;;;6125556;23;20084;-78
2023/05/06 02:31:22;;;;;;;6.80;5.53;;;19.00;81.20;;;;;;6100018;23;20432;-78
2023/05/06 02:33:47;;;;;;;7.75;6.03;;;19.00;81.40;;;;;;6125686;23;20013;-78
2023/05/06 02:36:13;;;;;;;8.13;5.88;;;19.00;81.60;;;;;;6126005;23;20030;-78
2023/05/06 02:38:39;;;;;;;8.95;6.13;;;19.00;81.50;;;;;;6125182;23;20496;-78
2023/05/06 02:41:05;;;;;;;6.15;5.20;;;19.00;81.50;;;;;;6100136;23;20002;-78
2023/05/06 02:43:31;;;;;;;6.20;5.00;;;18.90;81.70;;;;;;6126157;23;20002;-78
2023/05/06 02:45:56;;;;;;;7.03;4.95;;;18.90;82.00;;;;;;6126039;23;20025;-78
2023/05/06 02:48:22;;;;;;;6.47;5.05;;;18.90;82.10;;;;;;6125323;23;20002;-78
2023/05/06 02:50:48;;;;;;;5.93;4.90;;;18.90;82.40;;;;;;6126027;23;20002;-78
2023/05/06 02:53:14;;;;;;;8.40;5.65;;;18.90;82.50;;;;;;6125748;23;20487;-79
2023/05/06 02:55:40;;;;;;;6.38;5.07;;;18.90;82.60;;;;;;6125943;23;20006;-78
2023/05/06 02:58:05;;;;;;;7.45;5.25;;;18.80;82.80;;;;;;6099399;23;20025;-79
2023/05/06 03:00:31;;;;;;;7.38;5.07;;;18.80;82.80;;;;;;6098662;23;20329;-79
2023/05/06 03:02:57;;;;;;;5.20;4.50;;;18.80;82.80;;;;;;6125953;23;20002;-78
2023/05/06 03:05:22;;;;;;;7.45;5.32;;;18.70;82.90;;;;;;6126131;23;19998;-78
2023/05/06 03:07:48;;;;;;;6.93;5.13;;;18.70;82.90;;;;;;6124974;23;19998;-78
2023/05/06 03:10:14;;;;;;;6.80;5.15;;;18.70;82.90;;;;;;6125197;23;20424;-78
2023/05/06 03:12:40;;;;;;;7.13;5.32;;;18.70;83.30;;;;;;6125750;23;20006;-78
2023/05/06 03:15:06;;;;;;;5.75;5.15;;;18.70;83.30;;;;;;6125743;23;20436;-78
2023/05/06 03:17:31;;;;;;;6.28;5.28;;;18.70;83.30;;;;;;6125554;23;20068;-78
2023/05/06 03:19:57;;;;;;;6.38;5.47;;;18.70;83.40;;;;;;6126147;23;20409;-78
2023/05/06 03:22:23;;;;;;;8.32;5.82;;;18.70;83.50;;;;;;6126507;23;20006;-79
2023/05/06 03:24:49;;;;;;;9.05;7.03;;;18.70;83.70;;;;;;6126062;23;20017;-78
2023/05/06 03:27:15;;;;;;;9.68;6.53;;;18.70;83.40;;;;;;6125237;23;20006;-78
2023/05/06 03:29:40;;;;;;;9.20;7.30;;;18.70;83.20;;;;;;6125930;23;20030;-78
2023/05/06 03:32:06;;;;;;;12.95;8.63;;;18.70;83.30;;;;;;6125575;23;20064;-78
2023/05/06 03:34:32;;;;;;;11.32;8.18;;;18.80;83.20;;;;;;6125863;23;20055;-78
2023/05/06 03:36:57;;;;;;;12.70;8.60;;;18.80;83.10;;;;;;6099430;23;20029;-75
2023/05/06 03:39:23;;;;;;;10.20;8.70;;;18.70;83.10;;;;;;6125648;23;20006;-75
2023/05/06 03:41:49;;;;;;;9.50;8.38;;;18.70;83.20;;;;;;6125603;23;20086;-75
2023/05/06 03:44:15;;;;;;;14.68;9.27;;;18.70;83.30;;;;;;6125652;23;20401;-75
2023/05/06 03:46:40;;;;;;;16.50;10.77;;;18.70;83.30;;;;;;6125763;23;20013;-75
2023/05/06 03:49:07;;;;;;;12.65;9.48;;;18.70;83.40;;;;;;6125380;23;20014;-75
2023/05/06 03:51:34;;;;;;;13.90;9.75;;;18.60;83.20;;;;;;6125605;23;20010;-75
2023/05/06 03:54:00;;;;;;;13.27;11.05;;;18.60;83.20;;;;;;6124727;23;20108;-74
2023/05/06 03:56:25;;;;;;;14.68;10.30;;;18.60;83.40;;;;;;6125235;23;20033;-74
2023/05/06 03:58:52;;;;;;;14.13;10.50;;;18.60;83.50;;;;;;6126571;23;20006;-74
2023/05/06 04:01:18;;;;;;;14.23;10.15;;;18.60;83.50;;;;;;6127615;23;20027;-75
2023/05/06 04:03:44;;;;;;;15.70;11.05;;;18.60;83.60;;;;;;6127795;23;19998;-75
2023/05/06 04:06:10;;;;;;;14.15;9.98;;;18.50;83.80;;;;;;6101223;23;20006;-75
2023/05/06 04:08:36;;;;;;;14.13;10.95;;;18.50;84.00;;;;;;6127364;23;20008;-75
2023/05/06 04:11:05;;;;;;;14.45;10.43;;;18.50;84.00;;;;;;6127360;23;20008;-75
2023/05/06 04:13:32;;;;;;;12.43;9.93;;;18.50;84.10;;;;;;6127570;23;19998;-75
2023/05/06 04:15:57;;;;;;;11.52;9.52;;;18.50;84.10;;;;;;6127044;23;20277;-75
2023/05/06 04:18:23;;;;;;;11.88;9.52;;;18.50;84.10;;;;;;6127023;23;20010;-75
2023/05/06 04:20:49;;;;;;;12.30;9.30;;;18.40;84.30;;;;;;6127228;23;20002;-77
2023/05/06 04:23:15;;;;;;;13.35;9.82;;;18.40;84.30;;;;;;6127650;23;20005;-76
2023/05/06 04:25:47;;;;;;;12.40;9.85;;;18.40;84.50;;;;;;6127346;23;20009;-76
2023/05/06 04:28:15;;;;;;;10.90;9.05;;;18.30;84.70;;;;;;6126431;23;20329;-76
2023/05/06 04:30:45;;;;;;;11.20;9.38;;;18.30;85.00;;;;;;6100494;23;20013;-76
2023/05/06 04:33:11;;;;;;;10.73;9.48;;;18.40;85.10;;;;;;6127386;23;20017;-75
2023/05/06 04:35:37;;;;;;;10.98;8.75;;;18.30;85.10;;;;;;6127290;23;20013;-75
2023/05/06 04:38:03;;;;;;;14.15;9.43;;;18.30;85.10;;;;;;6126647;23;20002;-75
2023/05/06 04:40:29;;;;;;;14.90;9.50;;;18.30;85.30;;;;;;6126794;23;20013;-76
2023/05/06 04:42:55;;;;;;;12.82;9.60;;;18.30;85.60;;;;;;6127701;23;20008;-75
2023/05/06 04:45:23;;;;;;;12.85;9.93;;;18.40;85.70;;;;;;6126745;23;20374;-74
2023/05/06 04:47:49;;;;;;;12.63;9.93;;;18.30;85.60;;;;;;6126941;23;19998;-74
2023/05/06 04:50:15;;;;;;;12.23;9.80;;;18.30;85.70;;;;;;6127501;23;20401;-75
2023/05/06 04:52:40;;;;;;;11.77;9.65;;;18.40;85.70;;;;;;6127189;23;20006;-74
2023/05/06 04:55:06;;;;;;;12.52;9.52;;;18.40;85.60;;;;;;6100308;23;20017;-74
2023/05/06 04:57:32;;;;;;;12.02;9.70;;;18.40;85.70;;;;;;6125228;23;20009;-75
2023/05/06 04:59:57;;;;;;;14.23;10.15;;;18.40;85.80;;;;;;6126895;23;20134;-75
2023/05/06 05:02:23;;;;;;;14.18;11.52;;;18.30;85.80;;;;;;6126712;23;20006;-78
2023/05/06 05:04:49;;;;;;;17.63;12.05;;;18.30;85.90;;;;;;6126347;23;20025;-78
2023/05/06 05:07:15;;;;;;;17.58;11.95;;;18.30;85.90;;;;;;6126858;23;20001;-78
2023/05/06 05:09:41;;;;;;;14.02;10.43;;;18.30;86.10;;;;;;6100779;23;20016;-77
2023/05/06 05:12:06;;;;;;;13.18;10.77;;;18.20;86.20;;;;;;6126627;23;20066;-78
2023/05/06 05:14:32;;;;;;;15.27;11.38;;;18.20;86.10;;;;;;6125738;23;19998;-78
2023/05/06 05:17:01;;;;;;;14.35;11.23;;;18.20;86.30;;;;;;6126889;23;20006;-78
2023/05/06 05:19:26;;;;;;;15.48;10.70;;;18.20;86.50;;;;;;6126718;23;20008;-78
2023/05/06 05:21:53;;;;;;;15.85;10.88;;;18.20;86.50;;;;;;6127116;23;20002;-78
2023/05/06 05:24:19;;;;;;;15.95;11.80;;;18.20;86.70;;;;;;6126413;23;20002;-78
2023/05/06 05:26:45;;;;;;;13.80;11.32;;;18.30;86.90;;;;;;6125953;23;20002;-75
2023/05/06 05:29:10;;;;;;;14.63;10.40;;;18.30;86.90;;;;;;6126499;23;20065;-75
2023/05/06 05:31:36;;;;;;;14.73;11.85;;;18.30;86.90;;;;;;6126748;23;20077;-75
2023/05/06 05:34:02;;;;;;;15.27;11.68;;;18.30;87.00;;;;;;6125807;23;20022;-75
2023/05/06 05:36:27;;;;;;;14.23;11.85;;;18.40;87.10;;;;;;6126460;23;20001;-74
2023/05/06 05:38:53;;;;;;;14.75;11.75;;;18.50;87.20;;;;;;6100553;23;20444;-75
2023/05/06 05:41:19;;;;;;;15.77;11.90;;;18.50;87.30;;;;;;6126713;23;20020;-76
2023/05/06 05:43:44;;;;;;;14.18;11.75;;;18.60;87.40;;;;;;6126119;23;20409;-76
2023/05/06 05:46:10;;;;;;;16.02;12.48;;;18.60;87.40;;;;;;6126741;23;20432;-76
2023/05/06 05:48:38;;;;;;;16.05;13.15;;;18.70;87.20;;;;;;6126210;23;20475;-75
2023/05/06 05:51:05;;;;;;;17.67;12.40;;;18.80;87.00;;;;;;6126396;23;20081;-76
2023/05/06 05:53:30;;;;;;;15.88;11.85;;;18.80;86.80;;;;;;6123537;23;20032;-75
2023/05/06 05:55:56;;;;;;;14.32;11.68;;;18.90;86.80;;;;;;6121999;23;19998;-76
2023/05/06 05:58:22;;;;;;;13.57;11.70;;;19.00;86.70;;;;;;6125476;23;20428;-76
2023/05/06 06:00:47;;;;;;;14.85;11.75;;;19.10;86.80;;;;;;6125211;23;20087;-76
2023/05/06 06:03:13;;;;;;;16.30;11.82;;;19.10;86.80;;;;;;6125794;23;20077;-75
2023/05/06 06:05:39;;;;;;;14.93;12.90;;;19.20;86.80;;;;;;6098419;23;20445;-82
2023/05/06 06:08:05;;;;;;;14.23;11.55;;;19.20;86.60;;;;;;6125210;23;20401;-77
2023/05/06 06:10:31;;;;;;;15.45;12.13;;;19.30;86.50;;;;;;6125444;23;20564;-75
2023/05/06 06:12:56;;;;;;;14.63;11.75;;;19.30;86.10;;;;;;6125795;23;20041;-75
2023/05/06 06:15:22;;;;;;;11.88;10.02;;;19.30;85.90;;;;;;6125088;23;20444;-75
2023/05/06 06:17:48;;;;;;;13.40;10.13;;;19.30;85.70;;;;;;6124512;23;20006;-75
2023/05/06 06:20:13;;;;;;;17.45;13.05;;;19.30;85.80;;;;;;6125402;23;20010;-75
2023/05/06 06:22:39;;;;;;;15.45;12.10;;;19.30;85.90;;;;;;6124040;23;20460;-76
2023/05/06 06:25:06;;;;;;;14.85;11.88;;;19.40;86.00;;;;;;6124746;23;20009;-75
2023/05/06 06:27:35;;;;;;;13.77;11.13;;;19.40;85.90;;;;;;6124327;23;20002;-79
2023/05/06 06:30:01;;;;;;;12.88;10.25;;;19.50;85.90;;;;;;6125111;23;20005;-79
2023/05/06 06:32:27;;;;;;;15.23;11.15;;;19.50;85.90;;;;;;6125472;23;20006;-79
2023/05/06 06:34:52;;;;;;;15.32;11.60;;;19.60;86.00;;;;;;6125275;23;20544;-79
2023/05/06 06:37:18;;;;;;;15.23;10.90;;;19.70;85.50;;;;;;6126299;23;20138;-80
2023/05/06 06:39:44;;;;;;;14.05;10.80;;;19.70;85.50;;;;;;6123586;23;20002;-84
2023/05/06 06:42:10;;;;;;;15.20;11.25;;;19.90;85.50;;;;;;6126073;23;20078;-80
2023/05/06 06:44:35;;;;;;;14.52;11.00;;;19.90;85.30;;;;;;6124066;23;20056;-75
2023/05/06 06:47:01;;;;;;;14.13;10.95;;;20.00;84.90;;;;;;6099422;23;20006;-75
2023/05/06 06:49:27;;;;;;;14.23;10.38;;;20.00;84.90;;;;;;6126015;23;20006;-80
2023/05/06 06:51:55;;;;;;;16.98;10.93;;;20.00;84.40;;;;;;6125080;23;20439;-80
2023/05/06 06:54:21;;;;;;;13.30;10.57;;;20.10;84.50;;;;;;6125759;23;20028;-79
2023/05/06 06:56:47;;;;;;;14.68;10.70;;;20.20;84.60;;;;;;6126225;23;20002;-80
2023/05/06 06:59:13;;;;;;;13.60;10.38;;;20.20;84.40;;;;;;6125774;23;20032;-80
2023/05/06 07:01:40;;;;;;;14.38;9.90;;;20.30;84.30;;;;;;6125963;23;20417;-79
2023/05/06 07:04:06;;;;;;;13.85;10.73;;;20.40;84.10;;;;;;6126409;23;20073;-80
2023/05/06 07:06:31;;;;;;;15.02;11.80;;;20.40;84.00;;;;;;6100003;23;20022;-80
2023/05/06 07:08:57;;;;;;;12.75;10.77;;;20.50;84.00;;;;;;6125575;23;20006;-80
2023/05/06 07:11:23;;;;;;;14.82;11.15;;;20.60;84.00;;;;;;6126278;23;20151;-75
2023/05/06 07:13:48;;;;;;;14.38;10.95;;;20.60;83.80;;;;;;6126062;23;20057;-75
2023/05/06 07:16:14;;;;;;;13.85;10.20;;;20.70;83.30;;;;;;6125866;23;20337;-76
2023/05/06 07:18:40;;;;;;;11.65;9.38;;;20.70;83.80;;;;;;6125889;23;20116;-75
2023/05/06 07:21:05;;;;;;;12.43;9.85;;;20.80;82.90;;;;;;6125435;23;20007;-75
2023/05/06 07:23:31;;;;;;;14.43;11.68;;;20.90;82.80;;;;;;6125428;23;20002;-75
2023/05/06 07:25:58;;;;;;;12.25;9.95;;;20.90;82.60;;;;;;6125793;23;19998;-75
2023/05/06 07:28:24;;;;;;;12.45;9.60;;;21.00;82.60;;;;;;6125835;23;20005;-75
2023/05/06 07:30:51;;;;;;;14.27;9.88;;;21.00;82.50;;;;;;6126459;23;20006;-75
2023/05/06 07:33:17;;;;;;;13.13;10.05;;;21.10;82.30;;;;;;6124097;23;20456;-75
2023/05/06 07:35:43;;;;;;;15.95;9.93;;;21.10;82.10;;;;;;6124194;23;20006;-75
2023/05/06 07:38:09;;;;;;;11.55;8.75;;;21.10;82.10;;;;;;6126684;23;20102;-75
2023/05/06 07:40:34;;;;;;;13.88;10.10;;;21.20;82.10;;;;;;6127684;23;20370;-75
2023/05/06 07:43:01;;;;;;;12.77;9.45;;;21.20;82.40;;;;;;6127482;23;20593;-75
2023/05/06 07:45:27;;;;;;;14.02;9.52;;;21.30;81.70;;;;;;6125326;23;20376;-75
2023/05/06 07:47:52;;;;;;;12.20;9.63;;;21.40;81.60;;;;;;6101972;23;20077;-75
2023/05/06 07:50:18;;;;;;;13.65;9.13;;;21.40;81.30;;;;;;6128012;23;20006;-80
2023/05/06 07:52:44;;;;;;;12.07;9.10;;;21.50;81.20;;;;;;6127919;23;20002;-80
2023/05/06 07:55:10;;;;;;;10.68;8.82;;;21.50;81.10;;;;;;6125841;23;20006;-80
2023/05/06 07:57:36;;;;;;;12.73;9.25;;;21.50;80.80;;;;;;6125044;23;20049;-80
2023/05/06 08:00:03;;;;;;;11.85;8.32;;;21.60;80.60;;;;;;6127276;23;20006;-79
2023/05/06 08:02:30;;;;;;;12.35;8.52;;;21.60;80.40;;;;;;6127849;23;20033;-79
2023/05/06 08:04:56;;;;;;;11.95;9.55;;;21.70;80.20;;;;;;6127233;23;20006;-79
2023/05/06 08:07:22;;;;;;;11.10;9.10;;;21.70;80.10;;;;;;6126864;23;20436;-79
2023/05/06 08:09:47;;;;;;;12.45;8.50;;;21.80;79.50;;;;;;6101580;23;20096;-79
2023/05/06 08:12:14;;;;;;;11.02;8.18;;;21.90;79.60;;;;;;6127770;23;20002;-79
2023/05/06 08:14:40;;;;;;;11.20;8.93;;;21.90;79.40;;;;;;6128004;23;20006;-79
2023/05/06 08:17:05;;;;;;;10.48;7.85;;;22.00;78.90;;;;;;6127905;23;20012;-79
2023/05/06 08:19:31;;;;;;;11.55;8.50;;;22.10;78.30;;;;;;6126970;23;20041;-79
2023/05/06 08:21:57;;;;;;;7.90;5.68;;;22.20;78.50;;;;;;6127723;23;20006;-79
2023/05/06 08:24:23;;;;;;;6.55;5.30;;;22.30;76.40;;;;;;6127948;23;20064;-79
2023/05/06 08:26:48;;;;;;;5.88;4.30;;;22.40;75.10;;;;;;6127679;23;20072;-75
2023/05/06 08:29:14;;;;;;;6.50;4.25;;;22.40;74.20;;;;;;6127942;23;20002;-75
2023/05/06 08:31:40;;;;;;;6.45;4.50;;;22.40;73.20;;;;;;6101362;23;20093;-74
2023/05/06 08:34:07;;;;;;;8.75;5.32;;;22.40;72.50;;;;;;6127460;23;20014;-79
2023/05/06 08:36:33;;;;;;;8.88;5.57;;;22.50;72.50;;;;;;6101884;23;20037;-75
2023/05/06 08:38:58;;;;;;;6.78;5.30;;;22.60;72.40;;;;;;6127223;23;20002;-75
2023/05/06 08:41:26;;;;;;;11.27;7.53;;;22.60;72.50;;;;;;6127490;23;20005;-75
2023/05/06 08:43:53;;;;;;;12.50;7.22;;;22.70;72.70;;;;;;6100972;23;20009;-75
2023/05/06 08:46:19;;;;;;;16.35;7.60;;;22.80;72.10;;;;;;6127308;23;20010;-75
2023/05/06 08:48:44;;;;;;;10.75;7.45;;;23.00;71.70;;;;;;6127108;23;20413;-74
2023/05/06 08:51:14;;;;;;;12.55;8.25;;;23.00;71.70;;;;;;6127482;23;20057;-75
2023/05/06 08:53:45;;;;;;;18.03;8.67;;;23.10;71.50;;;;;;6097286;23;20433;-80
2023/05/06 08:56:12;;;;;;;16.40;7.75;;;23.20;71.60;;;;;;6124931;23;19998;-81
2023/05/06 08:58:42;;;;;;;14.13;6.32;;;23.30;71.80;;;;;;6125508;23;20053;-82
2023/05/06 09:01:08;;;;;;;12.25;5.97;;;23.40;71.70;;;;;;6124988;23;20036;-81
2023/05/06 09:03:33;;;;;;;10.93;6.15;;;23.50;71.30;;;;;;6126105;23;19998;-82
2023/05/06 09:05:59;;;;;;;8.77;5.40;;;23.60;70.50;;;;;;6125137;23;19998;-82
2023/05/06 09:08:25;;;;;;;13.60;5.95;;;23.70;70.40;;;;;;6126017;23;20439;-81
2023/05/06 09:10:50;;;;;;;14.63;6.22;;;23.80;69.60;;;;;;6125864;23;20002;-81
2023/05/06 09:13:18;;;;;;;12.50;5.80;;;23.90;69.20;;;;;;6125368;23;20320;-82
2023/05/06 09:15:46;;;;;;;10.32;5.70;;;24.10;69.20;;;;;;6100377;23;20016;-81
2023/05/06 09:18:12;;;;;;;10.32;5.78;;;24.20;68.80;;;;;;6124829;23;20010;-82
2023/05/06 09:20:43;;;;;;;17.17;7.07;;;24.30;68.30;;;;;;6127011;23;20081;-82
2023/05/06 09:23:09;;;;;;;11.23;6.78;;;24.40;67.30;;;;;;6126994;23;19998;-82
2023/05/06 09:25:36;;;;;;;12.20;7.95;;;24.50;67.20;;;;;;6127196;23;20002;-82
2023/05/06 09:28:07;;;;;;;14.55;7.95;;;24.50;65.60;;;;;;6126603;23;20004;-82
2023/05/06 09:30:37;;;;;;;11.93;6.10;;;24.60;65.60;;;;;;6125552;23;20037;-82
2023/05/06 09:33:04;;;;;;;10.15;6.85;;;24.70;65.30;;;;;;6126973;23;20034;-82
2023/05/06 09:35:39;;;;;;;7.82;6.28;;;24.80;65.60;;;;;;6125563;23;20028;-82
2023/05/06 09:38:06;;;;;;;10.95;5.65;;;24.90;65.10;;;;;;6126275;23;20052;-82
2023/05/06 09:40:33;;;;;;;7.97;4.82;;;25.00;64.00;;;;;;6124884;23;20030;-82
2023/05/06 09:42:59;;;;;;;5.93;3.97;;;25.10;62.30;;;;;;6126202;23;20005;-76
2023/05/06 09:45:27;;;;;;;4.97;3.65;;;25.30;62.60;;;;;;6125688;23;20081;-76
2023/05/06 09:47:53;;;;;;;5.13;3.97;;;25.40;63.60;;;;;;6124983;23;20009;-76
2023/05/06 09:50:23;;;;;;;6.40;3.00;;;25.50;61.70;;;;;;6125625;23;20006;-76
2023/05/06 09:52:49;;;;;;;5.03;2.38;;;25.60;60.70;;;;;;6126632;23;20322;-76
2023/05/06 09:55:19;;;;;;;4.55;2.10;;;25.60;60.80;;;;;;6126072;23;20057;-76
2023/05/06 09:57:46;;;;;;;3.77;1.80;;;25.80;58.90;;;;;;6126109;23;20006;-76
2023/05/06 10:00:13;;;;;;;6.85;2.85;;;25.90;59.30;;;;;;6124689;23;20029;-75
2023/05/06 10:02:39;;;;;;;4.82;1.85;;;26.00;59.30;;;;;;6121254;23;20053;-76
2023/05/06 10:05:07;;;;;;;6.03;2.20;;;26.10;58.00;;;;;;6123105;23;19998;-76
2023/05/06 10:07:34;;;;;;;2.97;2.28;;;26.30;57.70;;;;;;6125694;23;20005;-76
2023/05/06 10:10:02;;;;;;;3.17;1.88;;;26.40;57.40;;;;;;6126148;23;20002;-76
2023/05/06 10:12:28;;;;;;;2.42;2.03;;;26.50;57.10;;;;;;6125887;23;20010;-76
2023/05/06 10:14:54;;;;;;;3.45;1.65;;;26.60;56.40;;;;;;6126170;23;20012;-76
2023/05/06 10:17:24;;;;;;;2.22;1.70;;;26.70;56.10;;;;;;6126252;23;20080;-75
2023/05/06 10:19:55;;;;;;;1.58;1.40;;;26.80;55.70;;;;;;6125526;23;20053;-75
2023/05/06 10:22:39;;;;;;;4.07;2.50;;;26.90;56.30;;;;;;6125800;23;20037;-76
2023/05/06 10:25:06;;;;;;;1.52;1.42;;;27.10;55.30;;;;;;6124736;23;20424;-76
2023/05/06 10:27:36;;;;;;;3.65;1.77;;;27.10;54.00;;;;;;6123044;23;20001;-76
2023/05/06 10:30:02;;;;;;;3.95;1.42;;;27.10;53.40;;;;;;6097755;23;20013;-76
2023/05/06 10:32:31;;;;;;;5.57;1.40;;;27.10;52.80;;;;;;6125342;23;20002;-76
2023/05/06 10:35:09;;;;;;;2.25;1.20;;;27.20;53.40;;;;;;6123471;23;20056;-76
2023/05/06 10:37:38;;;;;;;5.45;1.70;;;27.30;52.60;;;;;;6125304;23;20001;-77
2023/05/06 10:40:04;;;;;;;3.95;1.30;;;27.50;52.60;;;;;;6125732;23;20041;-77
2023/05/06 10:42:34;;;;;;;4.88;1.35;;;27.50;50.90;;;;;;6125252;23;20476;-77
2023/05/06 10:45:04;;;;;;;2.58;1.63;;;27.60;51.00;;;;;;6125037;23;20002;-77
2023/05/06 10:47:55;;;;;;;6.53;1.88;;;27.80;50.20;;;;;;6125654;23;19998;-77
2023/05/06 10:50:23;;;;;;;5.72;1.88;;;27.90;48.90;;;;;;6125951;23;20053;-77
2023/05/06 10:52:56;;;;;;;2.75;1.42;;;28.00;48.60;;;;;;6125919;23;20029;-77
2023/05/06 10:55:25;;;;;;;2.75;1.52;;;28.10;47.70;;;;;;6125282;23;20341;-77
2023/05/06 10:57:55;;;;;;;5.70;1.25;;;28.20;46.20;;;;;;6125198;23;20444;-77
2023/05/06 11:00:21;;;;;;;3.00;1.70;;;28.20;45.50;;;;;;6123435;23;20009;-77
2023/05/06 11:02:53;;;;;;;3.08;1.70;;;28.30;47.00;;;;;;6125128;23;20081;-77
2023/05/06 11:05:19;;;;;;;1.73;1.50;;;28.50;47.40;;;;;;6122638;23;19998;-77
2023/05/06 11:07:48;;;;;;;3.20;1.58;;;28.60;47.40;;;;;;6124999;23;20456;-78
2023/05/06 11:10:14;;;;;;;2.78;1.42;;;28.80;46.40;;;;;;6125562;23;20010;-77
2023/05/06 11:12:52;;;;;;;1.40;1.27;;;28.90;46.30;;;;;;6125327;23;20405;-77
2023/05/06 11:15:38;;;;;;;2.05;1.40;;;29.10;44.40;;;;;;6125021;23;20002;-77
2023/05/06 11:18:25;;;;;;;2.42;1.23;;;29.20;45.60;;;;;;6099221;23;20010;-77
2023/05/06 11:21:11;;;;;;;1.25;0.90;;;29.50;42.60;;;;;;6098874;23;20036;-77
2023/05/06 11:23:48;;;;;;;1.60;1.35;;;29.60;43.60;;;;;;6124092;23;20032;-77
2023/05/06 11:26:14;;;;;;;3.08;1.30;;;29.80;44.00;;;;;;6120803;23;20013;-81
2023/05/06 11:28:44;;;;;;;3.45;1.40;;;29.90;45.10;;;;;;6120953;23;20053;-81
2023/05/06 11:31:11;;;;;;;1.73;1.30;;;30.10;44.00;;;;;;6119160;23;20018;-81
2023/05/06 11:33:45;;;;;;;1.80;1.27;;;30.30;44.60;;;;;;6120780;23;20013;-78
2023/05/06 11:36:14;;;;;;;7.65;1.65;;;30.50;45.10;;;;;;6117002;23;20010;-77
2023/05/06 11:38:45;;;;;;;2.25;1.50;;;30.70;43.70;;;;;;6118404;23;20373;-77
2023/05/06 11:41:11;;;;;;;2.30;1.70;;;31.00;44.40;;;;;;6120468;23;20087;-77
2023/05/06 11:43:38;;;;;;;1.90;1.65;;;31.30;44.10;;;;;;6120114;23;20029;-77
2023/05/06 11:46:04;;;;;;;2.13;1.58;;;31.50;44.10;;;;;;6121674;23;20008;-77
2023/05/06 11:48:29;;;;;;;2.60;1.50;;;31.80;42.80;;;;;;6121461;23;20006;-80
2023/05/06 11:50:55;;;;;;;4.70;1.20;;;32.00;41.90;;;;;;6122481;23;20326;-80
2023/05/06 11:53:23;;;;;;;1.60;1.13;;;32.10;42.20;;;;;;6094183;23;20060;-80
2023/05/06 11:55:52;;;;;;;1.45;1.20;;;32.30;42.00;;;;;;6121212;23;20118;-80
2023/05/06 11:58:23;;;;;;;1.30;1.10;;;32.50;40.20;;;;;;6120429;23;20025;-77
2023/05/06 12:00:54;;;;;;;2.97;1.15;;;32.50;40.40;;;;;;6121879;23;20091;-80
2023/05/06 12:03:21;;;;;;;1.60;1.30;;;32.60;39.90;;;;;;6121314;23;20006;-77
2023/05/06 12:05:48;;;;;;;2.15;1.58;;;32.80;39.60;;;;;;6121254;23;20002;-77
2023/05/06 12:08:22;;;;;;;2.33;1.27;;;32.80;38.70;;;;;;6120970;23;20324;-77
2023/05/06 12:11:04;;;;;;;1.05;0.95;;;32.90;39.70;;;;;;6121820;23;20014;-77
2023/05/06 12:13:30;;;;;;;1.38;1.10;;;32.90;38.80;;;;;;6119344;23;20009;-77
2023/05/06 12:15:58;;;;;;;1.95;1.10;;;32.90;39.00;;;;;;6122154;23;20005;-77
2023/05/06 12:18:24;;;;;;;1.60;1.25;;;32.90;38.60;;;;;;6122867;23;20440;-77
2023/05/06 12:20:54;;;;;;;2.65;1.38;;;32.90;38.70;;;;;;6122312;23;20016;-77
2023/05/06 12:23:20;;;;;;;;;;;32.90;39.10;;;;;;6123350;23;20006;-77
2023/05/06 12:26:05;;;;;;;2.78;1.05;;;33.00;38.10;;;;;;6122885;23;19905;-77
2023/05/06 12:28:32;;;;;;;1.30;1.20;;;33.00;39.20;;;;;;6123797;23;20033;-77
2023/05/06 12:30:58;;;;;;;1.63;1.10;;;33.00;39.30;;;;;;6123074;23;20006;-77
2023/05/06 12:33:24;;;;;;;1.20;1.10;;;33.00;39.60;;;;;;6122899;23;20014;-77
2023/05/06 12:35:57;;;;;;;1.80;1.27;;;33.00;39.40;;;;;;6122282;23;20081;-77
2023/05/06 12:38:22;;;;;;;3.00;1.15;;;33.00;39.30;;;;;;6125780;23;20436;-77
2023/05/06 12:40:54;;;;;;;2.97;1.02;;;32.90;38.50;;;;;;6126094;23;20002;-77